sensor_id;sensor_type;location;lat;lon;timestamp;P1;durP1;ratioP1;P2;durP2;ratioP2
14939;SDS011;11825;51.898;8.202;2022-10-13T00:00:22;8.70;;;7.17;;
14939;SDS011;11825;51.898;8.202;2022-10-13T00:05:24;14.47;;;8.13;;
14939;SDS011;11825;51.898;8.202;2022-10-13T00:10:30;10.47;;;8.40;;
14939;SDS011;11825;51.898;8.202;2022-10-13T00:15:50;9.30;;;7.60;;
14939;SDS011;11825;51.898;8.202;2022-10-13T00:20:54;13.03;;;8.53;;
14939;SDS011;11825;51.898;8.202;2022-10-13T00:25:56;8.97;;;7.17;;
14939;SDS011;11825;51.898;8.202;2022-10-13T00:30:58;8.20;;;7.40;;
14939;SDS011;11825;51.898;8.202;2022-10-13T00:36:00;9.23;;;8.17;;
14939;SDS011;11825;51.898;8.202;2022-10-13T00:41:02;10.50;;;8.33;;
14939;SDS011;11825;51.898;8.202;2022-10-13T00:46:04;8.80;;;7.27;;
14939;SDS011;11825;51.898;8.202;2022-10-13T00:51:09;9.30;;;8.40;;
14939;SDS011;11825;51.898;8.202;2022-10-13T00:56:12;11.40;;;8.87;;
14939;SDS011;11825;51.898;8.202;2022-10-13T01:01:15;15.77;;;9.17;;
14939;SDS011;11825;51.898;8.202;2022-10-13T01:06:18;12.57;;;8.13;;
14939;SDS011;11825;51.898;8.202;2022-10-13T01:11:29;11.30;;;8.47;;
14939;SDS011;11825;51.898;8.202;2022-10-13T01:33:29;16.43;;;9.90;;
14939;SDS011;11825;51.898;8.202;2022-10-13T01:44:26;10.60;;;9.50;;
14939;SDS011;11825;51.898;8.202;2022-10-13T01:49:33;13.27;;;9.93;;
14939;SDS011;11825;51.898;8.202;2022-10-13T01:54:36;12.03;;;10.23;;
14939;SDS011;11825;51.898;8.202;2022-10-13T01:59:39;13.70;;;9.20;;
14939;SDS011;11825;51.898;8.202;2022-10-13T02:15:06;16.10;;;11.23;;
14939;SDS011;11825;51.898;8.202;2022-10-13T02:20:11;13.07;;;10.77;;
14939;SDS011;11825;51.898;8.202;2022-10-13T02:25:13;16.00;;;12.20;;
14939;SDS011;11825;51.898;8.202;2022-10-13T02:30:20;13.13;;;11.30;;
14939;SDS011;11825;51.898;8.202;2022-10-13T02:35:24;14.50;;;12.53;;
14939;SDS011;11825;51.898;8.202;2022-10-13T02:40:26;16.40;;;11.93;;
14939;SDS011;11825;51.898;8.202;2022-10-13T02:45:28;15.40;;;12.20;;
14939;SDS011;11825;51.898;8.202;2022-10-13T02:50:36;16.53;;;10.93;;
14939;SDS011;11825;51.898;8.202;2022-10-13T02:55:37;13.87;;;11.10;;
14939;SDS011;11825;51.898;8.202;2022-10-13T03:00:39;13.47;;;12.07;;
14939;SDS011;11825;51.898;8.202;2022-10-13T03:05:41;16.80;;;12.97;;
14939;SDS011;11825;51.898;8.202;2022-10-13T03:10:44;16.00;;;13.43;;
14939;SDS011;11825;51.898;8.202;2022-10-13T03:15:49;14.70;;;13.10;;
14939;SDS011;11825;51.898;8.202;2022-10-13T03:20:57;12.53;;;11.20;;
14939;SDS011;11825;51.898;8.202;2022-10-13T03:26:00;13.10;;;11.33;;
14939;SDS011;11825;51.898;8.202;2022-10-13T03:31:11;14.50;;;12.23;;
14939;SDS011;11825;51.898;8.202;2022-10-13T03:36:13;12.57;;;10.60;;
14939;SDS011;11825;51.898;8.202;2022-10-13T03:41:16;15.73;;;11.07;;
14939;SDS011;11825;51.898;8.202;2022-10-13T03:46:20;20.97;;;13.63;;
14939;SDS011;11825;51.898;8.202;2022-10-13T03:51:25;13.73;;;12.10;;
14939;SDS011;11825;51.898;8.202;2022-10-13T03:56:27;17.70;;;13.23;;
14939;SDS011;11825;51.898;8.202;2022-10-13T04:01:31;13.83;;;12.33;;
14939;SDS011;11825;51.898;8.202;2022-10-13T04:11:55;21.53;;;13.53;;
14939;SDS011;11825;51.898;8.202;2022-10-13T04:16:57;17.10;;;13.87;;
14939;SDS011;11825;51.898;8.202;2022-10-13T04:22:04;14.43;;;12.50;;
14939;SDS011;11825;51.898;8.202;2022-10-13T04:27:10;20.67;;;13.07;;
14939;SDS011;11825;51.898;8.202;2022-10-13T04:32:15;19.33;;;12.63;;
14939;SDS011;11825;51.898;8.202;2022-10-13T04:37:17;23.10;;;13.67;;
14939;SDS011;11825;51.898;8.202;2022-10-13T04:42:19;17.93;;;13.90;;
14939;SDS011;11825;51.898;8.202;2022-10-13T04:47:24;20.43;;;12.87;;
14939;SDS011;11825;51.898;8.202;2022-10-13T04:53:20;18.87;;;12.80;;
14939;SDS011;11825;51.898;8.202;2022-10-13T04:58:45;15.87;;;12.47;;
14939;SDS011;11825;51.898;8.202;2022-10-13T05:03:54;22.97;;;14.07;;
14939;SDS011;11825;51.898;8.202;2022-10-13T05:09:00;17.43;;;13.00;;
14939;SDS011;11825;51.898;8.202;2022-10-13T05:14:02;17.00;;;12.97;;
14939;SDS011;11825;51.898;8.202;2022-10-13T05:19:04;14.53;;;12.87;;
14939;SDS011;11825;51.898;8.202;2022-10-13T05:24:06;22.17;;;13.70;;
14939;SDS011;11825;51.898;8.202;2022-10-13T05:29:16;21.17;;;12.87;;
14939;SDS011;11825;51.898;8.202;2022-10-13T05:34:18;16.40;;;12.70;;
14939;SDS011;11825;51.898;8.202;2022-10-13T05:39:22;18.40;;;12.70;;
14939;SDS011;11825;51.898;8.202;2022-10-13T05:44:29;20.13;;;15.67;;
14939;SDS011;11825;51.898;8.202;2022-10-13T05:49:31;18.93;;;14.90;;
14939;SDS011;11825;51.898;8.202;2022-10-13T05:54:34;22.03;;;18.27;;
14939;SDS011;11825;51.898;8.202;2022-10-13T05:59:40;19.07;;;15.67;;
14939;SDS011;11825;51.898;8.202;2022-10-13T06:04:46;15.50;;;13.37;;
14939;SDS011;11825;51.898;8.202;2022-10-13T06:09:52;26.50;;;22.30;;
14939;SDS011;11825;51.898;8.202;2022-10-13T06:14:59;30.43;;;23.63;;
14939;SDS011;11825;51.898;8.202;2022-10-13T06:20:04;17.73;;;14.10;;
14939;SDS011;11825;51.898;8.202;2022-10-13T06:25:07;20.90;;;14.77;;
14939;SDS011;11825;51.898;8.202;2022-10-13T06:30:09;17.03;;;13.40;;
14939;SDS011;11825;51.898;8.202;2022-10-13T06:35:11;24.80;;;15.37;;
14939;SDS011;11825;51.898;8.202;2022-10-13T06:40:13;18.07;;;13.93;;
14939;SDS011;11825;51.898;8.202;2022-10-13T06:45:16;16.27;;;12.33;;
14939;SDS011;11825;51.898;8.202;2022-10-13T06:50:20;18.17;;;12.23;;
14939;SDS011;11825;51.898;8.202;2022-10-13T06:55:22;16.50;;;12.73;;
14939;SDS011;11825;51.898;8.202;2022-10-13T07:00:24;13.80;;;11.43;;
14939;SDS011;11825;51.898;8.202;2022-10-13T07:05:25;19.13;;;12.83;;
14939;SDS011;11825;51.898;8.202;2022-10-13T07:10:27;19.60;;;13.73;;
14939;SDS011;11825;51.898;8.202;2022-10-13T07:15:29;15.30;;;12.03;;
14939;SDS011;11825;51.898;8.202;2022-10-13T07:20:31;15.47;;;10.87;;
14939;SDS011;11825;51.898;8.202;2022-10-13T07:25:40;17.33;;;11.73;;
14939;SDS011;11825;51.898;8.202;2022-10-13T07:30:42;17.43;;;11.90;;
14939;SDS011;11825;51.898;8.202;2022-10-13T07:35:44;11.80;;;10.60;;
14939;SDS011;11825;51.898;8.202;2022-10-13T07:40:46;15.57;;;11.83;;
14939;SDS011;11825;51.898;8.202;2022-10-13T07:45:48;15.37;;;10.77;;
14939;SDS011;11825;51.898;8.202;2022-10-13T07:50:57;15.53;;;11.60;;
14939;SDS011;11825;51.898;8.202;2022-10-13T07:56:03;14.23;;;11.17;;
14939;SDS011;11825;51.898;8.202;2022-10-13T08:01:15;15.70;;;10.77;;
14939;SDS011;11825;51.898;8.202;2022-10-13T08:06:24;12.87;;;10.00;;
14939;SDS011;11825;51.898;8.202;2022-10-13T08:11:57;12.53;;;8.80;;
14939;SDS011;11825;51.898;8.202;2022-10-13T08:17:01;12.27;;;9.30;;
14939;SDS011;11825;51.898;8.202;2022-10-13T08:22:03;18.83;;;9.63;;
14939;SDS011;11825;51.898;8.202;2022-10-13T08:27:10;15.87;;;9.77;;
14939;SDS011;11825;51.898;8.202;2022-10-13T08:32:14;12.03;;;8.03;;
14939;SDS011;11825;51.898;8.202;2022-10-13T08:37:17;14.13;;;9.43;;
14939;SDS011;11825;51.898;8.202;2022-10-13T08:42:21;13.27;;;9.43;;
14939;SDS011;11825;51.898;8.202;2022-10-13T08:52:42;24.50;;;11.90;;
14939;SDS011;11825;51.898;8.202;2022-10-13T08:57:52;61.07;;;19.33;;
14939;SDS011;11825;51.898;8.202;2022-10-13T09:02:56;38.10;;;16.07;;
14939;SDS011;11825;51.898;8.202;2022-10-13T09:08:02;13.03;;;8.13;;
14939;SDS011;11825;51.898;8.202;2022-10-13T09:13:07;13.67;;;9.63;;
14939;SDS011;11825;51.898;8.202;2022-10-13T09:18:10;17.17;;;8.10;;
14939;SDS011;11825;51.898;8.202;2022-10-13T09:23:17;12.20;;;8.43;;
14939;SDS011;11825;51.898;8.202;2022-10-13T09:28:25;11.40;;;8.80;;
14939;SDS011;11825;51.898;8.202;2022-10-13T09:33:30;11.80;;;8.67;;
14939;SDS011;11825;51.898;8.202;2022-10-13T09:38:35;10.13;;;7.00;;
14939;SDS011;11825;51.898;8.202;2022-10-13T09:48:56;13.90;;;8.20;;
14939;SDS011;11825;51.898;8.202;2022-10-13T09:54:32;11.47;;;7.33;;
14939;SDS011;11825;51.898;8.202;2022-10-13T09:59:49;10.23;;;7.47;;
14939;SDS011;11825;51.898;8.202;2022-10-13T10:04:53;25.47;;;9.50;;
14939;SDS011;11825;51.898;8.202;2022-10-13T10:10:23;69.60;;;21.80;;
14939;SDS011;11825;51.898;8.202;2022-10-13T10:47:57;11.90;;;7.93;;
14939;SDS011;11825;51.898;8.202;2022-10-13T10:53:25;8.67;;;7.00;;
14939;SDS011;11825;51.898;8.202;2022-10-13T10:58:46;17.27;;;8.20;;
14939;SDS011;11825;51.898;8.202;2022-10-13T11:14:47;7.93;;;6.63;;
14939;SDS011;11825;51.898;8.202;2022-10-13T11:25:40;10.53;;;6.50;;
14939;SDS011;11825;51.898;8.202;2022-10-13T11:35:55;14.37;;;5.90;;
14939;SDS011;11825;51.898;8.202;2022-10-13T11:46:22;10.03;;;6.50;;
14939;SDS011;11825;51.898;8.202;2022-10-13T11:57:17;6.00;;;5.37;;
14939;SDS011;11825;51.898;8.202;2022-10-13T12:02:24;6.57;;;4.53;;
14939;SDS011;11825;51.898;8.202;2022-10-13T12:07:30;5.57;;;5.07;;
14939;SDS011;11825;51.898;8.202;2022-10-13T12:12:34;9.40;;;5.20;;
14939;SDS011;11825;51.898;8.202;2022-10-13T12:17:36;5.47;;;4.07;;
14939;SDS011;11825;51.898;8.202;2022-10-13T12:22:46;5.30;;;4.07;;
14939;SDS011;11825;51.898;8.202;2022-10-13T12:27:52;9.50;;;4.60;;
14939;SDS011;11825;51.898;8.202;2022-10-13T12:32:56;4.03;;;3.63;;
14939;SDS011;11825;51.898;8.202;2022-10-13T12:38:00;4.73;;;3.17;;
14939;SDS011;11825;51.898;8.202;2022-10-13T12:43:08;6.80;;;3.93;;
14939;SDS011;11825;51.898;8.202;2022-10-13T12:48:29;4.70;;;3.77;;
14939;SDS011;11825;51.898;8.202;2022-10-13T12:53:33;10.70;;;4.50;;
14939;SDS011;11825;51.898;8.202;2022-10-13T12:58:35;7.80;;;4.53;;
14939;SDS011;11825;51.898;8.202;2022-10-13T13:03:37;6.30;;;3.87;;
14939;SDS011;11825;51.898;8.202;2022-10-13T13:08:42;12.67;;;4.20;;
14939;SDS011;11825;51.898;8.202;2022-10-13T13:13:44;5.60;;;3.60;;
14939;SDS011;11825;51.898;8.202;2022-10-13T13:18:47;6.80;;;3.40;;
14939;SDS011;11825;51.898;8.202;2022-10-13T13:23:53;5.93;;;3.90;;
14939;SDS011;11825;51.898;8.202;2022-10-13T13:28:55;4.00;;;3.70;;
14939;SDS011;11825;51.898;8.202;2022-10-13T13:33:57;5.13;;;4.30;;
14939;SDS011;11825;51.898;8.202;2022-10-13T13:38:59;6.40;;;3.73;;
14939;SDS011;11825;51.898;8.202;2022-10-13T13:44:00;6.63;;;3.57;;
14939;SDS011;11825;51.898;8.202;2022-10-13T13:49:02;4.50;;;3.80;;
14939;SDS011;11825;51.898;8.202;2022-10-13T13:54:07;4.33;;;3.63;;
14939;SDS011;11825;51.898;8.202;2022-10-13T13:59:09;5.07;;;4.07;;
14939;SDS011;11825;51.898;8.202;2022-10-13T14:04:10;5.10;;;3.67;;
14939;SDS011;11825;51.898;8.202;2022-10-13T14:09:12;4.40;;;3.77;;
14939;SDS011;11825;51.898;8.202;2022-10-13T14:14:14;8.33;;;4.80;;
14939;SDS011;11825;51.898;8.202;2022-10-13T14:19:16;6.47;;;4.87;;
14939;SDS011;11825;51.898;8.202;2022-10-13T14:24:18;9.47;;;5.40;;
14939;SDS011;11825;51.898;8.202;2022-10-13T14:29:20;7.67;;;5.03;;
14939;SDS011;11825;51.898;8.202;2022-10-13T14:34:22;9.97;;;5.33;;
14939;SDS011;11825;51.898;8.202;2022-10-13T14:39:24;8.20;;;5.70;;
14939;SDS011;11825;51.898;8.202;2022-10-13T14:44:27;6.97;;;6.03;;
14939;SDS011;11825;51.898;8.202;2022-10-13T14:49:31;10.97;;;7.57;;
14939;SDS011;11825;51.898;8.202;2022-10-13T14:54:36;7.50;;;5.83;;
14939;SDS011;11825;51.898;8.202;2022-10-13T14:59:44;9.10;;;6.90;;
14939;SDS011;11825;51.898;8.202;2022-10-13T15:04:46;7.47;;;6.70;;
14939;SDS011;11825;51.898;8.202;2022-10-13T15:09:50;12.63;;;6.10;;
14939;SDS011;11825;51.898;8.202;2022-10-13T15:15:06;17.13;;;10.67;;
14939;SDS011;11825;51.898;8.202;2022-10-13T15:20:09;16.67;;;7.63;;
14939;SDS011;11825;51.898;8.202;2022-10-13T15:25:11;9.13;;;6.63;;
14939;SDS011;11825;51.898;8.202;2022-10-13T15:30:20;7.00;;;6.30;;
14939;SDS011;11825;51.898;8.202;2022-10-13T15:52:53;9.20;;;8.20;;
14939;SDS011;11825;51.898;8.202;2022-10-13T16:04:33;12.17;;;10.00;;
14939;SDS011;11825;51.898;8.202;2022-10-13T16:09:37;12.73;;;10.63;;
14939;SDS011;11825;51.898;8.202;2022-10-13T16:14:39;9.67;;;8.57;;
14939;SDS011;11825;51.898;8.202;2022-10-13T16:19:41;17.00;;;9.93;;
14939;SDS011;11825;51.898;8.202;2022-10-13T16:24:46;15.20;;;9.80;;
14939;SDS011;11825;51.898;8.202;2022-10-13T16:29:54;14.00;;;10.03;;
14939;SDS011;11825;51.898;8.202;2022-10-13T16:34:56;13.27;;;9.40;;
14939;SDS011;11825;51.898;8.202;2022-10-13T16:39:58;13.90;;;11.03;;
14939;SDS011;11825;51.898;8.202;2022-10-13T16:45:00;12.67;;;10.43;;
14939;SDS011;11825;51.898;8.202;2022-10-13T16:50:05;13.20;;;10.30;;
14939;SDS011;11825;51.898;8.202;2022-10-13T16:55:16;18.10;;;13.90;;
14939;SDS011;11825;51.898;8.202;2022-10-13T17:00:24;14.53;;;11.73;;
14939;SDS011;11825;51.898;8.202;2022-10-13T17:05:26;16.10;;;12.90;;
14939;SDS011;11825;51.898;8.202;2022-10-13T17:10:27;18.23;;;13.17;;
14939;SDS011;11825;51.898;8.202;2022-10-13T17:15:29;14.17;;;12.00;;
14939;SDS011;11825;51.898;8.202;2022-10-13T17:20:31;16.57;;;13.07;;
14939;SDS011;11825;51.898;8.202;2022-10-13T17:25:33;15.83;;;13.00;;
14939;SDS011;11825;51.898;8.202;2022-10-13T17:36:20;14.97;;;12.20;;
14939;SDS011;11825;51.898;8.202;2022-10-13T17:41:22;17.33;;;13.23;;
14939;SDS011;11825;51.898;8.202;2022-10-13T17:46:26;17.77;;;12.13;;
14939;SDS011;11825;51.898;8.202;2022-10-13T17:51:41;19.63;;;15.87;;
14939;SDS011;11825;51.898;8.202;2022-10-13T17:56:49;20.77;;;13.83;;
14939;SDS011;11825;51.898;8.202;2022-10-13T18:02:05;14.50;;;12.93;;
14939;SDS011;11825;51.898;8.202;2022-10-13T18:07:17;17.70;;;13.73;;
14939;SDS011;11825;51.898;8.202;2022-10-13T18:12:19;15.73;;;13.13;;
14939;SDS011;11825;51.898;8.202;2022-10-13T18:17:23;14.17;;;12.77;;
14939;SDS011;11825;51.898;8.202;2022-10-13T18:22:38;20.07;;;14.07;;
14939;SDS011;11825;51.898;8.202;2022-10-13T18:27:42;17.53;;;13.63;;
14939;SDS011;11825;51.898;8.202;2022-10-13T18:33:00;15.50;;;14.00;;
14939;SDS011;11825;51.898;8.202;2022-10-13T18:38:07;18.07;;;13.40;;
14939;SDS011;11825;51.898;8.202;2022-10-13T18:43:08;17.63;;;14.37;;
14939;SDS011;11825;51.898;8.202;2022-10-13T18:48:12;16.53;;;14.77;;
14939;SDS011;11825;51.898;8.202;2022-10-13T18:59:09;18.27;;;14.43;;
14939;SDS011;11825;51.898;8.202;2022-10-13T19:04:13;15.73;;;14.07;;
14939;SDS011;11825;51.898;8.202;2022-10-13T19:09:16;18.23;;;14.97;;
14939;SDS011;11825;51.898;8.202;2022-10-13T19:14:19;17.83;;;15.13;;
14939;SDS011;11825;51.898;8.202;2022-10-13T19:19:20;16.80;;;13.40;;
14939;SDS011;11825;51.898;8.202;2022-10-13T19:24:22;29.40;;;24.57;;
14939;SDS011;11825;51.898;8.202;2022-10-13T19:29:27;19.13;;;16.97;;
14939;SDS011;11825;51.898;8.202;2022-10-13T19:34:41;18.57;;;14.47;;
14939;SDS011;11825;51.898;8.202;2022-10-13T19:39:43;19.13;;;14.70;;
14939;SDS011;11825;51.898;8.202;2022-10-13T19:44:45;19.93;;;17.37;;
14939;SDS011;11825;51.898;8.202;2022-10-13T19:49:47;18.80;;;15.00;;
14939;SDS011;11825;51.898;8.202;2022-10-13T19:54:49;15.27;;;13.33;;
14939;SDS011;11825;51.898;8.202;2022-10-13T19:59:51;16.73;;;14.00;;
14939;SDS011;11825;51.898;8.202;2022-10-13T20:04:53;20.27;;;14.77;;
14939;SDS011;11825;51.898;8.202;2022-10-13T20:09:54;20.77;;;16.00;;
14939;SDS011;11825;51.898;8.202;2022-10-13T20:14:56;17.77;;;15.73;;
14939;SDS011;11825;51.898;8.202;2022-10-13T20:19:58;21.10;;;15.93;;
14939;SDS011;11825;51.898;8.202;2022-10-13T20:25:02;24.27;;;15.43;;
14939;SDS011;11825;51.898;8.202;2022-10-13T20:30:06;15.87;;;14.17;;
14939;SDS011;11825;51.898;8.202;2022-10-13T20:35:08;21.63;;;15.70;;
14939;SDS011;11825;51.898;8.202;2022-10-13T20:40:10;16.87;;;13.43;;
14939;SDS011;11825;51.898;8.202;2022-10-13T20:45:12;19.27;;;14.93;;
14939;SDS011;11825;51.898;8.202;2022-10-13T20:50:16;19.40;;;16.03;;
14939;SDS011;11825;51.898;8.202;2022-10-13T20:55:25;17.20;;;15.43;;
14939;SDS011;11825;51.898;8.202;2022-10-13T21:00:41;18.70;;;16.50;;
14939;SDS011;11825;51.898;8.202;2022-10-13T21:05:44;21.60;;;17.33;;
14939;SDS011;11825;51.898;8.202;2022-10-13T21:10:55;18.97;;;15.63;;
14939;SDS011;11825;51.898;8.202;2022-10-13T21:15:57;21.93;;;17.87;;
14939;SDS011;11825;51.898;8.202;2022-10-13T21:21:08;20.00;;;17.53;;
14939;SDS011;11825;51.898;8.202;2022-10-13T21:26:11;18.93;;;16.90;;
14939;SDS011;11825;51.898;8.202;2022-10-13T21:31:21;23.40;;;17.67;;
14939;SDS011;11825;51.898;8.202;2022-10-13T21:36:32;25.43;;;18.67;;
14939;SDS011;11825;51.898;8.202;2022-10-13T21:41:51;24.17;;;19.37;;
14939;SDS011;11825;51.898;8.202;2022-10-13T21:46:53;28.57;;;20.00;;
14939;SDS011;11825;51.898;8.202;2022-10-13T21:52:02;25.30;;;18.60;;
14939;SDS011;11825;51.898;8.202;2022-10-13T21:57:04;24.13;;;19.80;;
14939;SDS011;11825;51.898;8.202;2022-10-13T22:02:06;25.27;;;20.00;;
14939;SDS011;11825;51.898;8.202;2022-10-13T22:07:09;21.80;;;19.50;;
14939;SDS011;11825;51.898;8.202;2022-10-13T22:12:10;22.93;;;19.33;;
14939;SDS011;11825;51.898;8.202;2022-10-13T22:17:12;28.60;;;21.03;;
14939;SDS011;11825;51.898;8.202;2022-10-13T22:22:14;27.83;;;21.30;;
14939;SDS011;11825;51.898;8.202;2022-10-13T22:27:16;29.57;;;23.20;;
14939;SDS011;11825;51.898;8.202;2022-10-13T22:32:18;26.23;;;21.67;;
14939;SDS011;11825;51.898;8.202;2022-10-13T22:37:20;26.27;;;21.67;;
14939;SDS011;11825;51.898;8.202;2022-10-13T22:42:23;24.30;;;20.10;;
14939;SDS011;11825;51.898;8.202;2022-10-13T22:47:28;26.83;;;21.37;;
14939;SDS011;11825;51.898;8.202;2022-10-13T22:52:42;28.73;;;22.23;;
14939;SDS011;11825;51.898;8.202;2022-10-13T22:57:44;31.10;;;22.97;;
14939;SDS011;11825;51.898;8.202;2022-10-13T23:08:39;30.13;;;24.60;;
14939;SDS011;11825;51.898;8.202;2022-10-13T23:20:08;30.73;;;24.33;;
14939;SDS011;11825;51.898;8.202;2022-10-13T23:25:12;33.13;;;26.87;;
14939;SDS011;11825;51.898;8.202;2022-10-13T23:30:16;34.70;;;27.27;;
14939;SDS011;11825;51.898;8.202;2022-10-13T23:35:20;33.70;;;26.27;;
14939;SDS011;11825;51.898;8.202;2022-10-13T23:40:29;34.63;;;26.00;;
14939;SDS011;11825;51.898;8.202;2022-10-13T23:45:36;34.03;;;27.97;;
14939;SDS011;11825;51.898;8.202;2022-10-13T23:50:38;34.60;;;28.23;;
14939;SDS011;11825;51.898;8.202;2022-10-13T23:55:49;40.60;;;28.77;;
